CMA CGM Herodote — MFEP — position and weather

sailwx.info

Track history (hours):
 
Tides and Currents Weather Stations Pressure Air Temp Water Temp Dewpoint Dewpoint Depression Visibility Wind Speed Wind Dir Waves Ship Positions

CMA CGM Herodote

Last reported at 2014-Jul-25 01:05 UTC. Time now 2014-Jul-29 00:45 UTC.
Position N 18°00' W 063°03'.

Length 170 m; draft 9.1 m.

Type: Ship (hazmat cat A). MMSI: 235051085.

Date/timePositionNaut miles runAvg speedWind from/ knotsBaromVisibWave heightAir tempDewpointWater temp
2014-Jul-25 01:05N 18°00' W 063°03'0 0.7
2014-Jul-25 00:30N 18°01' W 063°03'0 0.0
2014-Jul-24 22:18N 18°01' W 063°03'0 0.0
2014-Jul-24 10:20N 18°01' W 063°03'  
2014-Jul-16 14:22N 49°57' W 001°40'1619.6
2014-Jul-16 13:34N 49°51' W 001°18'1818.2
2014-Jul-16 12:34N 49°43' W 000°52'1817.5
2014-Jul-16 11:34N 49°37' W 000°27'1716.7
2014-Jul-16 10:33N 49°30' W 000°03'9 8.2
2014-Jul-16 09:31N 49°29' E 000°10'0 0.0
2014-Jul-16 08:34N 49°29' E 000°10'0 0.0
2014-Jul-16 07:31N 49°29' E 000°10'0 0.0
2014-Jul-16 06:34N 49°29' E 000°10'0 0.0
2014-Jul-16 05:34N 49°29' E 000°10'0 0.0
2014-Jul-16 04:34N 49°29' E 000°10'0 0.0
2014-Jul-16 03:34N 49°29' E 000°10'0 0.0
2014-Jul-16 02:34N 49°29' E 000°10'0 0.0
2014-Jul-16 01:31N 49°29' E 000°10'0 0.0
2014-Jul-16 00:31N 49°29' E 000°10'0 0.0
2014-Jul-15 23:34N 49°29' E 000°10'0 0.0
2014-Jul-15 22:31N 49°29' E 000°10'0 0.0
2014-Jul-15 21:34N 49°29' E 000°10'0 0.0
2014-Jul-15 20:31N 49°29' E 000°10'0 0.0
2014-Jul-15 19:34N 49°29' E 000°10'0 0.0
2014-Jul-15 18:34N 49°29' E 000°10'0 0.0
2014-Jul-15 17:31N 49°29' E 000°10'0 0.0
2014-Jul-15 16:31N 49°29' E 000°10'0 0.0
2014-Jul-15 15:31N 49°29' E 000°10'0 0.0
2014-Jul-15 14:31N 49°29' E 000°10'0 0.4
2014-Jul-15 13:32N 49°28' E 000°10'0 0.1
2014-Jul-15 12:32N 49°28' E 000°09'5 5.6
2014-Jul-15 11:33N 49°30' E 000°01'2 2.4
2014-Jul-15 10:33N 49°30' W 000°02'0 0.1
2014-Jul-15 09:33N 49°29' W 000°02'0 0.1
2014-Jul-15 08:33N 49°29' W 000°02'0 0.1
2014-Jul-15 07:33N 49°29' W 000°03'0 0.1
2014-Jul-15 06:33N 49°29' W 000°03'0 0.0
2014-Jul-15 05:33N 49°29' W 000°03'0 0.0
2014-Jul-15 04:33N 49°29' W 000°03'0 0.1
2014-Jul-15 03:33N 49°30' W 000°03'0 0.1
2014-Jul-15 02:33N 49°30' W 000°02'0 0.1
2014-Jul-15 01:33N 49°30' W 000°02'  
Track history (hours):
 
Tides and Currents Weather Stations Pressure Air Temp Water Temp Dewpoint Dewpoint Depression Visibility Wind Speed Wind Dir Waves Ship Positions

CMA CGM Herodote

Last reported at 2014-Jul-25 01:05 UTC. Time now 2014-Jul-29 00:45 UTC.
Position N 18°00' W 063°03'.

Length 170 m; draft 9.1 m.

Type: Ship (hazmat cat A). MMSI: 235051085.

Date/timePositionNaut miles runAvg speedWind from/ knotsBaromVisibWave heightAir tempDewpointWater temp
2014-Jul-25 01:05N 18°00' W 063°03'0 0.7
2014-Jul-25 00:30N 18°01' W 063°03'0 0.0
2014-Jul-24 22:18N 18°01' W 063°03'0 0.0
2014-Jul-24 10:20N 18°01' W 063°03'  
2014-Jul-16 14:22N 49°57' W 001°40'1619.6
2014-Jul-16 13:34N 49°51' W 001°18'1818.2
2014-Jul-16 12:34N 49°43' W 000°52'1817.5
2014-Jul-16 11:34N 49°37' W 000°27'1716.7
2014-Jul-16 10:33N 49°30' W 000°03'9 8.2
2014-Jul-16 09:31N 49°29' E 000°10'0 0.0
2014-Jul-16 08:34N 49°29' E 000°10'0 0.0
2014-Jul-16 07:31N 49°29' E 000°10'0 0.0
2014-Jul-16 06:34N 49°29' E 000°10'0 0.0
2014-Jul-16 05:34N 49°29' E 000°10'0 0.0
2014-Jul-16 04:34N 49°29' E 000°10'0 0.0
2014-Jul-16 03:34N 49°29' E 000°10'0 0.0
2014-Jul-16 02:34N 49°29' E 000°10'0 0.0
2014-Jul-16 01:31N 49°29' E 000°10'0 0.0
2014-Jul-16 00:31N 49°29' E 000°10'0 0.0
2014-Jul-15 23:34N 49°29' E 000°10'0 0.0
2014-Jul-15 22:31N 49°29' E 000°10'0 0.0
2014-Jul-15 21:34N 49°29' E 000°10'0 0.0
2014-Jul-15 20:31N 49°29' E 000°10'0 0.0
2014-Jul-15 19:34N 49°29' E 000°10'0 0.0
2014-Jul-15 18:34N 49°29' E 000°10'0 0.0
2014-Jul-15 17:31N 49°29' E 000°10'0 0.0
2014-Jul-15 16:31N 49°29' E 000°10'0 0.0
2014-Jul-15 15:31N 49°29' E 000°10'0 0.0
2014-Jul-15 14:31N 49°29' E 000°10'0 0.4
2014-Jul-15 13:32N 49°28' E 000°10'0 0.1
2014-Jul-15 12:32N 49°28' E 000°09'5 5.6
2014-Jul-15 11:33N 49°30' E 000°01'2 2.4
2014-Jul-15 10:33N 49°30' W 000°02'0 0.1
2014-Jul-15 09:33N 49°29' W 000°02'0 0.1
2014-Jul-15 08:33N 49°29' W 000°02'0 0.1
2014-Jul-15 07:33N 49°29' W 000°03'0 0.1
2014-Jul-15 06:33N 49°29' W 000°03'0 0.0
2014-Jul-15 05:33N 49°29' W 000°03'0 0.0
2014-Jul-15 04:33N 49°29' W 000°03'0 0.1
2014-Jul-15 03:33N 49°30' W 000°03'0 0.1
2014-Jul-15 02:33N 49°30' W 000°02'0 0.1
2014-Jul-15 01:33N 49°30' W 000°02'  

Dump ship's entire track history